sensor_id;sensor_type;location;lat;lon;timestamp;pressure;altitude;pressure_sealevel;temperature;humidity
60845;BME280;47984;51.250;6.712;2022-08-03T00:00:26;101318.88;;;18.60;40.57
60845;BME280;47984;51.250;6.712;2022-08-03T00:02:53;101307.03;;;18.52;40.86
60845;BME280;47984;51.250;6.712;2022-08-03T00:05:20;101314.94;;;18.52;40.33
60845;BME280;47984;51.250;6.712;2022-08-03T00:07:47;101316.72;;;18.51;40.46
60845;BME280;47984;51.250;6.712;2022-08-03T00:10:15;101308.22;;;18.46;40.18
60845;BME280;47984;51.250;6.712;2022-08-03T00:12:42;101317.06;;;18.45;40.81
60845;BME280;47984;51.250;6.712;2022-08-03T00:15:10;101311.91;;;18.44;41.02
60845;BME280;47984;51.250;6.712;2022-08-03T00:17:43;101305.03;;;18.39;40.72
60845;BME280;47984;51.250;6.712;2022-08-03T00:20:20;101302.66;;;18.35;41.05
60845;BME280;47984;51.250;6.712;2022-08-03T00:22:48;101302.84;;;18.32;40.56
60845;BME280;47984;51.250;6.712;2022-08-03T00:25:15;101296.88;;;18.28;40.86
60845;BME280;47984;51.250;6.712;2022-08-03T00:27:42;101297.03;;;18.25;40.86
60845;BME280;47984;51.250;6.712;2022-08-03T00:30:09;101293.69;;;18.22;40.78
60845;BME280;47984;51.250;6.712;2022-08-03T00:32:36;101301.69;;;18.20;41.08
60845;BME280;47984;51.250;6.712;2022-08-03T00:35:10;101300.06;;;18.17;41.30
60845;BME280;47984;51.250;6.712;2022-08-03T00:37:58;101293.28;;;18.13;40.83
60845;BME280;47984;51.250;6.712;2022-08-03T00:40:25;101300.31;;;18.13;41.39
60845;BME280;47984;51.250;6.712;2022-08-03T00:43:00;101295.13;;;18.11;40.78
60845;BME280;47984;51.250;6.712;2022-08-03T00:45:30;101292.75;;;18.07;41.27
60845;BME280;47984;51.250;6.712;2022-08-03T00:47:57;101288.50;;;18.04;41.14
60845;BME280;47984;51.250;6.712;2022-08-03T00:50:28;101292.22;;;18.00;41.64
60845;BME280;47984;51.250;6.712;2022-08-03T00:52:58;101292.38;;;17.97;41.09
60845;BME280;47984;51.250;6.712;2022-08-03T00:55:25;101290.66;;;17.96;41.36
60845;BME280;47984;51.250;6.712;2022-08-03T00:57:53;101287.28;;;17.94;41.05
60845;BME280;47984;51.250;6.712;2022-08-03T01:00:22;101291.94;;;17.89;41.52
60845;BME280;47984;51.250;6.712;2022-08-03T01:02:50;101286.56;;;17.90;41.71
60845;BME280;47984;51.250;6.712;2022-08-03T01:05:19;101287.59;;;17.88;41.75
60845;BME280;47984;51.250;6.712;2022-08-03T01:08:18;101289.34;;;17.87;41.77
60845;BME280;47984;51.250;6.712;2022-08-03T01:14:20;101288.75;;;17.82;41.67
60845;BME280;47984;51.250;6.712;2022-08-03T01:17:20;101282.72;;;17.80;41.43
60845;BME280;47984;51.250;6.712;2022-08-03T01:20:00;101286.44;;;17.76;41.26
60845;BME280;47984;51.250;6.712;2022-08-03T01:30:44;101286.75;;;17.70;41.43
60845;BME280;47984;51.250;6.712;2022-08-03T01:33:16;101289.41;;;17.68;41.92
60845;BME280;47984;51.250;6.712;2022-08-03T01:35:47;101281.69;;;17.65;41.72
60845;BME280;47984;51.250;6.712;2022-08-03T01:38:33;101286.09;;;17.65;41.90
60845;BME280;47984;51.250;6.712;2022-08-03T01:41:05;101284.47;;;17.62;41.66
60845;BME280;47984;51.250;6.712;2022-08-03T01:43:35;101289.81;;;17.61;42.12
60845;BME280;47984;51.250;6.712;2022-08-03T01:46:24;101284.63;;;17.59;42.38
60845;BME280;47984;51.250;6.712;2022-08-03T01:48:52;101290.81;;;17.58;42.19
60845;BME280;47984;51.250;6.712;2022-08-03T01:51:21;101281.31;;;17.56;42.29
60845;BME280;47984;51.250;6.712;2022-08-03T01:53:49;101287.41;;;17.56;41.71
60845;BME280;47984;51.250;6.712;2022-08-03T01:56:18;101285.88;;;17.52;41.94
60845;BME280;47984;51.250;6.712;2022-08-03T01:58:48;101279.81;;;17.50;42.31
60845;BME280;47984;51.250;6.712;2022-08-03T02:01:17;101278.97;;;17.50;42.36
60845;BME280;47984;51.250;6.712;2022-08-03T02:03:48;101279.97;;;17.47;41.97
60845;BME280;47984;51.250;6.712;2022-08-03T02:06:28;101272.25;;;17.44;42.45
60845;BME280;47984;51.250;6.712;2022-08-03T02:09:18;101270.88;;;17.37;42.29
60845;BME280;47984;51.250;6.712;2022-08-03T02:11:46;101285.63;;;17.39;42.28
60845;BME280;47984;51.250;6.712;2022-08-03T02:14:13;101283.94;;;17.38;42.56
60845;BME280;47984;51.250;6.712;2022-08-03T02:16:43;101280.69;;;17.33;42.44
60845;BME280;47984;51.250;6.712;2022-08-03T02:19:12;101284.16;;;17.34;42.20
60845;BME280;47984;51.250;6.712;2022-08-03T02:21:40;101289.56;;;17.31;42.06
60845;BME280;47984;51.250;6.712;2022-08-03T02:24:28;101289.66;;;17.29;42.84
60845;BME280;47984;51.250;6.712;2022-08-03T02:26:57;101285.41;;;17.27;42.23
60845;BME280;47984;51.250;6.712;2022-08-03T02:29:28;101283.75;;;17.24;42.40
60845;BME280;47984;51.250;6.712;2022-08-03T02:32:11;101285.53;;;17.23;42.67
60845;BME280;47984;51.250;6.712;2022-08-03T02:34:42;101276.03;;;17.21;42.64
60845;BME280;47984;51.250;6.712;2022-08-03T02:37:10;101268.34;;;17.16;42.81
60845;BME280;47984;51.250;6.712;2022-08-03T02:39:39;101278.72;;;17.19;42.67
60845;BME280;47984;51.250;6.712;2022-08-03T02:42:09;101271.13;;;17.13;42.77
60845;BME280;47984;51.250;6.712;2022-08-03T02:44:39;101268.34;;;17.16;43.08
60845;BME280;47984;51.250;6.712;2022-08-03T02:47:10;101268.44;;;17.15;42.89
60845;BME280;47984;51.250;6.712;2022-08-03T02:49:40;101279.00;;;17.13;42.49
60845;BME280;47984;51.250;6.712;2022-08-03T02:52:23;101275.63;;;17.11;42.82
60845;BME280;47984;51.250;6.712;2022-08-03T02:54:59;101278.25;;;17.11;43.22
60845;BME280;47984;51.250;6.712;2022-08-03T02:57:29;101278.31;;;17.10;42.91
60845;BME280;47984;51.250;6.712;2022-08-03T02:59:57;101279.31;;;17.07;43.36
60845;BME280;47984;51.250;6.712;2022-08-03T03:02:27;101271.66;;;17.02;43.14
60845;BME280;47984;51.250;6.712;2022-08-03T03:04:54;101277.78;;;17.03;42.70
60845;BME280;47984;51.250;6.712;2022-08-03T03:07:42;101283.16;;;17.00;43.16
60845;BME280;47984;51.250;6.712;2022-08-03T03:10:20;101282.47;;;16.96;42.93
60845;BME280;47984;51.250;6.712;2022-08-03T03:12:50;101279.94;;;16.95;43.13
60845;BME280;47984;51.250;6.712;2022-08-03T03:15:18;101273.06;;;16.91;43.11
60845;BME280;47984;51.250;6.712;2022-08-03T03:17:47;101277.41;;;16.92;43.25
60845;BME280;47984;51.250;6.712;2022-08-03T03:20:16;101282.81;;;16.89;43.06
60845;BME280;47984;51.250;6.712;2022-08-03T03:23:00;101281.19;;;16.86;43.33
60845;BME280;47984;51.250;6.712;2022-08-03T03:25:31;101284.72;;;16.85;42.91
60845;BME280;47984;51.250;6.712;2022-08-03T03:27:59;101281.31;;;16.83;43.25
60845;BME280;47984;51.250;6.712;2022-08-03T03:30:28;101282.31;;;16.81;43.33
60845;BME280;47984;51.250;6.712;2022-08-03T03:32:57;101287.72;;;16.77;43.25
60845;BME280;47984;51.250;6.712;2022-08-03T03:35:25;101286.03;;;16.76;43.71
60845;BME280;47984;51.250;6.712;2022-08-03T03:37:52;101283.53;;;16.73;43.48
60845;BME280;47984;51.250;6.712;2022-08-03T03:40:20;101284.44;;;16.72;43.39
60845;BME280;47984;51.250;6.712;2022-08-03T03:42:48;101281.97;;;16.69;44.20
60845;BME280;47984;51.250;6.712;2022-08-03T03:45:16;101289.94;;;16.68;43.54
60845;BME280;47984;51.250;6.712;2022-08-03T03:47:43;101279.56;;;16.65;43.63
60845;BME280;47984;51.250;6.712;2022-08-03T03:50:10;101282.19;;;16.65;43.90
60845;BME280;47984;51.250;6.712;2022-08-03T03:52:38;101277.09;;;16.62;43.48
60845;BME280;47984;51.250;6.712;2022-08-03T03:55:05;101286.72;;;16.61;43.26
60845;BME280;47984;51.250;6.712;2022-08-03T03:57:33;101281.63;;;16.58;43.53
60845;BME280;47984;51.250;6.712;2022-08-03T04:00:00;101285.09;;;16.59;44.01
60845;BME280;47984;51.250;6.712;2022-08-03T04:02:27;101287.72;;;16.59;43.92
60845;BME280;47984;51.250;6.712;2022-08-03T04:04:53;101284.31;;;16.56;44.16
60845;BME280;47984;51.250;6.712;2022-08-03T04:07:49;101284.41;;;16.55;43.76
60845;BME280;47984;51.250;6.712;2022-08-03T04:10:39;101287.88;;;16.55;44.03
60845;BME280;47984;51.250;6.712;2022-08-03T04:13:32;101292.31;;;16.53;43.95
60845;BME280;47984;51.250;6.712;2022-08-03T04:16:02;101286.22;;;16.53;43.68
60845;BME280;47984;51.250;6.712;2022-08-03T04:18:31;101278.41;;;16.51;43.79
60845;BME280;47984;51.250;6.712;2022-08-03T04:21:05;101288.91;;;16.51;43.65
60845;BME280;47984;51.250;6.712;2022-08-03T04:23:40;101297.66;;;16.52;43.77
60845;BME280;47984;51.250;6.712;2022-08-03T04:26:10;101293.31;;;16.51;44.32
60845;BME280;47984;51.250;6.712;2022-08-03T04:28:40;101288.06;;;16.51;44.30
60845;BME280;47984;51.250;6.712;2022-08-03T04:31:11;101291.53;;;16.51;43.91
60845;BME280;47984;51.250;6.712;2022-08-03T04:33:38;101289.84;;;16.50;44.14
60845;BME280;47984;51.250;6.712;2022-08-03T04:36:08;101289.00;;;16.50;44.15
60845;BME280;47984;51.250;6.712;2022-08-03T04:38:39;101289.94;;;16.49;44.57
60845;BME280;47984;51.250;6.712;2022-08-03T04:41:10;101296.88;;;16.50;44.19
60845;BME280;47984;51.250;6.712;2022-08-03T04:43:41;101294.16;;;16.51;44.24
60845;BME280;47984;51.250;6.712;2022-08-03T04:46:09;101301.13;;;16.52;44.48
60845;BME280;47984;51.250;6.712;2022-08-03T04:48:38;101299.34;;;16.53;44.16
60845;BME280;47984;51.250;6.712;2022-08-03T04:51:10;101289.69;;;16.53;44.15
60845;BME280;47984;51.250;6.712;2022-08-03T04:53:43;101297.50;;;16.55;44.27
60845;BME280;47984;51.250;6.712;2022-08-03T04:56:10;101304.47;;;16.56;44.13
60845;BME280;47984;51.250;6.712;2022-08-03T04:58:37;101307.88;;;16.58;44.13
60845;BME280;47984;51.250;6.712;2022-08-03T05:01:03;101303.47;;;16.59;44.23
60845;BME280;47984;51.250;6.712;2022-08-03T05:03:30;101300.75;;;16.60;44.36
60845;BME280;47984;51.250;6.712;2022-08-03T05:05:57;101304.22;;;16.61;44.71
60845;BME280;47984;51.250;6.712;2022-08-03T05:08:28;101303.25;;;16.63;44.67
60845;BME280;47984;51.250;6.712;2022-08-03T05:10:58;101303.19;;;16.65;44.74
60845;BME280;47984;51.250;6.712;2022-08-03T05:13:25;101304.81;;;16.67;44.72
60845;BME280;47984;51.250;6.712;2022-08-03T05:15:52;101303.81;;;16.70;44.27
60845;BME280;47984;51.250;6.712;2022-08-03T05:18:19;101301.03;;;16.73;44.43
60845;BME280;47984;51.250;6.712;2022-08-03T05:20:46;101309.72;;;16.75;44.92
60845;BME280;47984;51.250;6.712;2022-08-03T05:23:13;101312.13;;;16.79;44.83
60845;BME280;47984;51.250;6.712;2022-08-03T05:25:40;101310.22;;;16.83;44.64
60845;BME280;47984;51.250;6.712;2022-08-03T05:28:15;101305.72;;;16.85;44.88
60845;BME280;47984;51.250;6.712;2022-08-03T05:30:42;101317.72;;;16.91;44.58
60845;BME280;47984;51.250;6.712;2022-08-03T05:33:09;101308.81;;;16.95;44.47
60845;BME280;47984;51.250;6.712;2022-08-03T05:35:36;101311.22;;;16.99;44.59
60845;BME280;47984;51.250;6.712;2022-08-03T05:38:25;101310.84;;;17.07;44.37
60845;BME280;47984;51.250;6.712;2022-08-03T05:41:02;101308.84;;;17.12;44.98
60845;BME280;47984;51.250;6.712;2022-08-03T05:43:53;101310.34;;;17.18;44.70
60845;BME280;47984;51.250;6.712;2022-08-03T05:46:23;101308.34;;;17.23;44.63
60845;BME280;47984;51.250;6.712;2022-08-03T05:48:50;101310.69;;;17.29;44.79
60845;BME280;47984;51.250;6.712;2022-08-03T05:51:17;101303.50;;;17.33;45.20
60845;BME280;47984;51.250;6.712;2022-08-03T05:53:44;101307.50;;;17.40;44.75
60845;BME280;47984;51.250;6.712;2022-08-03T05:56:11;101304.72;;;17.43;44.76
60845;BME280;47984;51.250;6.712;2022-08-03T05:58:44;101310.22;;;17.56;44.53
60845;BME280;47984;51.250;6.712;2022-08-03T06:01:11;101296.78;;;17.62;45.40
60845;BME280;47984;51.250;6.712;2022-08-03T06:03:39;101299.09;;;17.68;45.45
60845;BME280;47984;51.250;6.712;2022-08-03T06:06:08;101303.06;;;17.77;44.60
60845;BME280;47984;51.250;6.712;2022-08-03T06:08:37;101307.09;;;17.84;45.27
60845;BME280;47984;51.250;6.712;2022-08-03T06:11:05;101304.06;;;17.91;45.28
60845;BME280;47984;51.250;6.712;2022-08-03T06:13:32;101299.34;;;17.98;45.26
60845;BME280;47984;51.250;6.712;2022-08-03T06:15:59;101305.91;;;18.07;44.84
60845;BME280;47984;51.250;6.712;2022-08-03T06:18:26;101304.66;;;18.14;45.20
60845;BME280;47984;51.250;6.712;2022-08-03T06:20:53;101305.09;;;18.22;44.90
60845;BME280;47984;51.250;6.712;2022-08-03T06:23:20;101309.00;;;18.31;45.16
60845;BME280;47984;51.250;6.712;2022-08-03T06:25:47;101307.66;;;18.39;44.82
60845;BME280;47984;51.250;6.712;2022-08-03T06:28:14;101305.41;;;18.49;45.22
60845;BME280;47984;51.250;6.712;2022-08-03T06:31:04;101317.09;;;18.61;44.80
60845;BME280;47984;51.250;6.712;2022-08-03T06:33:32;101312.16;;;18.71;44.95
60845;BME280;47984;51.250;6.712;2022-08-03T06:36:19;101308.94;;;18.81;44.68
60845;BME280;47984;51.250;6.712;2022-08-03T06:38:46;101311.06;;;18.91;44.99
60845;BME280;47984;51.250;6.712;2022-08-03T06:41:13;101313.25;;;18.98;44.94
60845;BME280;47984;51.250;6.712;2022-08-03T06:43:40;101315.22;;;19.11;45.31
60845;BME280;47984;51.250;6.712;2022-08-03T06:46:28;101312.09;;;19.20;44.97
60845;BME280;47984;51.250;6.712;2022-08-03T06:48:54;101310.72;;;19.28;45.33
60845;BME280;47984;51.250;6.712;2022-08-03T06:51:22;101303.13;;;19.38;44.65
60845;BME280;47984;51.250;6.712;2022-08-03T06:54:09;101306.00;;;19.49;44.70
60845;BME280;47984;51.250;6.712;2022-08-03T06:56:36;101310.72;;;19.59;45.29
60845;BME280;47984;51.250;6.712;2022-08-03T06:59:04;101307.56;;;19.68;44.74
60845;BME280;47984;51.250;6.712;2022-08-03T07:01:30;101312.28;;;19.77;45.33
60845;BME280;47984;51.250;6.712;2022-08-03T07:03:57;101308.19;;;19.87;44.56
60845;BME280;47984;51.250;6.712;2022-08-03T07:06:26;101304.22;;;19.94;45.13
60845;BME280;47984;51.250;6.712;2022-08-03T07:08:53;101313.13;;;20.08;45.43
60845;BME280;47984;51.250;6.712;2022-08-03T07:11:25;101316.88;;;20.18;45.44
60845;BME280;47984;51.250;6.712;2022-08-03T07:13:54;101318.00;;;20.28;45.07
60845;BME280;47984;51.250;6.712;2022-08-03T07:16:22;101315.75;;;20.36;44.69
60845;BME280;47984;51.250;6.712;2022-08-03T07:18:48;101318.56;;;20.48;44.52
60845;BME280;47984;51.250;6.712;2022-08-03T07:21:15;101312.00;;;20.55;44.43
60845;BME280;47984;51.250;6.712;2022-08-03T07:23:42;101324.34;;;20.68;44.63
60845;BME280;47984;51.250;6.712;2022-08-03T07:26:09;101322.16;;;20.75;44.91
60845;BME280;47984;51.250;6.712;2022-08-03T07:28:37;101324.78;;;20.89;45.42
60845;BME280;47984;51.250;6.712;2022-08-03T07:31:04;101326.06;;;20.97;44.51
60845;BME280;47984;51.250;6.712;2022-08-03T07:33:31;101316.06;;;21.02;44.50
60845;BME280;47984;51.250;6.712;2022-08-03T07:35:58;101327.91;;;21.09;44.57
60845;BME280;47984;51.250;6.712;2022-08-03T07:38:25;101323.22;;;21.14;45.41
60845;BME280;47984;51.250;6.712;2022-08-03T07:40:52;101323.66;;;21.21;45.10
60845;BME280;47984;51.250;6.712;2022-08-03T07:43:19;101320.69;;;21.25;44.97
60845;BME280;47984;51.250;6.712;2022-08-03T07:45:46;101322.09;;;21.31;45.36
60845;BME280;47984;51.250;6.712;2022-08-03T07:48:13;101318.22;;;21.36;45.20
60845;BME280;47984;51.250;6.712;2022-08-03T07:50:40;101311.66;;;21.42;44.68
60845;BME280;47984;51.250;6.712;2022-08-03T07:53:07;101318.16;;;21.51;45.35
60845;BME280;47984;51.250;6.712;2022-08-03T07:55:34;101316.78;;;21.58;45.38
60845;BME280;47984;51.250;6.712;2022-08-03T07:58:06;101317.00;;;21.68;44.85
60845;BME280;47984;51.250;6.712;2022-08-03T08:00:35;101311.09;;;21.77;45.35
60845;BME280;47984;51.250;6.712;2022-08-03T08:03:03;101303.50;;;21.85;44.58
60845;BME280;47984;51.250;6.712;2022-08-03T08:05:30;101311.66;;;21.95;45.11
60845;BME280;47984;51.250;6.712;2022-08-03T08:07:59;101309.13;;;22.06;45.21
60845;BME280;47984;51.250;6.712;2022-08-03T08:10:26;101303.19;;;22.15;44.85
60845;BME280;47984;51.250;6.712;2022-08-03T08:12:54;101306.97;;;22.24;45.16
60845;BME280;47984;51.250;6.712;2022-08-03T08:15:21;101300.19;;;22.33;44.82
60845;BME280;47984;51.250;6.712;2022-08-03T08:17:54;101305.00;;;22.40;44.48
60845;BME280;47984;51.250;6.712;2022-08-03T08:20:26;101302.63;;;22.48;44.34
60845;BME280;47984;51.250;6.712;2022-08-03T08:23:05;101305.69;;;22.55;44.73
60845;BME280;47984;51.250;6.712;2022-08-03T08:25:44;101306.75;;;22.65;45.20
60845;BME280;47984;51.250;6.712;2022-08-03T08:28:11;101307.03;;;22.73;45.06
60845;BME280;47984;51.250;6.712;2022-08-03T08:30:58;101307.31;;;22.82;44.23
60845;BME280;47984;51.250;6.712;2022-08-03T08:33:25;101304.00;;;22.91;45.09
60845;BME280;47984;51.250;6.712;2022-08-03T08:36:08;101296.34;;;22.99;44.77
60845;BME280;47984;51.250;6.712;2022-08-03T08:38:41;101304.13;;;23.13;45.09
60845;BME280;47984;51.250;6.712;2022-08-03T08:41:09;101300.81;;;23.23;44.61
60845;BME280;47984;51.250;6.712;2022-08-03T08:43:37;101300.84;;;23.34;44.85
60845;BME280;47984;51.250;6.712;2022-08-03T08:46:05;101302.81;;;23.43;44.51
60845;BME280;47984;51.250;6.712;2022-08-03T08:48:40;101296.81;;;23.52;44.31
60845;BME280;47984;51.250;6.712;2022-08-03T08:51:08;101297.72;;;23.64;44.35
60845;BME280;47984;51.250;6.712;2022-08-03T08:53:40;101291.47;;;23.76;44.20
60845;BME280;47984;51.250;6.712;2022-08-03T08:56:07;101289.91;;;23.85;43.92
60845;BME280;47984;51.250;6.712;2022-08-03T08:58:46;101286.44;;;23.96;44.43
60845;BME280;47984;51.250;6.712;2022-08-03T09:01:18;101295.34;;;24.06;43.81
60845;BME280;47984;51.250;6.712;2022-08-03T09:03:47;101291.13;;;24.15;44.47
60845;BME280;47984;51.250;6.712;2022-08-03T09:06:15;101299.84;;;24.28;43.71
60845;BME280;47984;51.250;6.712;2022-08-03T09:08:42;101289.47;;;24.36;43.62
60845;BME280;47984;51.250;6.712;2022-08-03T09:11:09;101291.41;;;24.45;44.17
60845;BME280;47984;51.250;6.712;2022-08-03T09:13:38;101286.28;;;24.53;43.52
60845;BME280;47984;51.250;6.712;2022-08-03T09:18:38;101292.78;;;24.72;44.14
60845;BME280;47984;51.250;6.712;2022-08-03T09:21:26;101293.06;;;24.80;43.68
60845;BME280;47984;51.250;6.712;2022-08-03T09:24:00;101293.88;;;24.92;43.31
60845;BME280;47984;51.250;6.712;2022-08-03T09:26:30;101290.56;;;24.99;43.47
60845;BME280;47984;51.250;6.712;2022-08-03T09:29:07;101294.19;;;25.10;43.29
60845;BME280;47984;51.250;6.712;2022-08-03T09:31:43;101291.69;;;25.18;43.68
60845;BME280;47984;51.250;6.712;2022-08-03T09:34:13;101300.75;;;25.27;43.77
60845;BME280;47984;51.250;6.712;2022-08-03T09:36:45;101294.56;;;25.37;43.61
60845;BME280;47984;51.250;6.712;2022-08-03T09:39:15;101294.75;;;25.45;42.99
60845;BME280;47984;51.250;6.712;2022-08-03T09:41:46;101290.31;;;25.56;43.44
60845;BME280;47984;51.250;6.712;2022-08-03T09:44:14;101285.34;;;25.62;43.01
60845;BME280;47984;51.250;6.712;2022-08-03T09:46:54;101286.81;;;25.76;43.27
60845;BME280;47984;51.250;6.712;2022-08-03T09:49:22;101282.53;;;25.85;43.33
60845;BME280;47984;51.250;6.712;2022-08-03T09:51:50;101285.38;;;25.93;43.07
60845;BME280;47984;51.250;6.712;2022-08-03T09:54:38;101283.75;;;26.02;42.84
60845;BME280;47984;51.250;6.712;2022-08-03T09:57:05;101272.72;;;26.06;43.08
60845;BME280;47984;51.250;6.712;2022-08-03T09:59:33;101280.16;;;26.12;43.32
60845;BME280;47984;51.250;6.712;2022-08-03T10:02:00;101275.97;;;26.20;42.64
60845;BME280;47984;51.250;6.712;2022-08-03T10:04:27;101270.09;;;26.26;42.92
60845;BME280;47984;51.250;6.712;2022-08-03T10:07:06;101277.16;;;26.36;43.01
60845;BME280;47984;51.250;6.712;2022-08-03T10:09:35;101275.66;;;26.44;43.00
60845;BME280;47984;51.250;6.712;2022-08-03T10:12:10;101271.47;;;26.51;42.64
60845;BME280;47984;51.250;6.712;2022-08-03T10:14:39;101271.75;;;26.57;42.53
60845;BME280;47984;51.250;6.712;2022-08-03T10:17:10;101274.72;;;26.64;42.63
60845;BME280;47984;51.250;6.712;2022-08-03T10:19:40;101272.34;;;26.71;42.59
60845;BME280;47984;51.250;6.712;2022-08-03T10:22:15;101265.31;;;26.79;42.08
60845;BME280;47984;51.250;6.712;2022-08-03T10:24:50;101253.25;;;26.85;42.72
60845;BME280;47984;51.250;6.712;2022-08-03T10:27:19;101263.38;;;26.91;42.50
60845;BME280;47984;51.250;6.712;2022-08-03T10:29:52;101251.59;;;26.94;42.35
60845;BME280;47984;51.250;6.712;2022-08-03T10:32:30;101250.91;;;27.01;42.14
60845;BME280;47984;51.250;6.712;2022-08-03T10:35:10;101246.84;;;27.07;41.98
60845;BME280;47984;51.250;6.712;2022-08-03T10:38:09;101251.59;;;27.13;42.29
60845;BME280;47984;51.250;6.712;2022-08-03T10:40:39;101254.69;;;27.18;42.19
60845;BME280;47984;51.250;6.712;2022-08-03T10:43:25;101247.97;;;27.24;42.09
60845;BME280;47984;51.250;6.712;2022-08-03T10:45:54;101242.88;;;27.31;41.94
60845;BME280;47984;51.250;6.712;2022-08-03T10:48:24;101239.50;;;27.38;42.07
60845;BME280;47984;51.250;6.712;2022-08-03T10:50:53;101232.75;;;27.44;41.84
60845;BME280;47984;51.250;6.712;2022-08-03T10:53:39;101238.38;;;27.50;41.88
60845;BME280;47984;51.250;6.712;2022-08-03T10:59:18;101233.72;;;27.62;41.66
60845;BME280;47984;51.250;6.712;2022-08-03T11:01:55;101229.63;;;27.68;41.11
60845;BME280;47984;51.250;6.712;2022-08-03T11:04:27;101214.28;;;27.70;41.05
60845;BME280;47984;51.250;6.712;2022-08-03T11:09:43;101220.84;;;27.75;41.42
60845;BME280;47984;51.250;6.712;2022-08-03T11:12:31;101206.25;;;27.80;41.48
60845;BME280;47984;51.250;6.712;2022-08-03T11:15:04;101220.97;;;27.84;41.45
60845;BME280;47984;51.250;6.712;2022-08-03T11:17:35;101218.84;;;27.87;41.24
60845;BME280;47984;51.250;6.712;2022-08-03T11:23:12;101221.91;;;28.02;41.04
60845;BME280;47984;51.250;6.712;2022-08-03T11:28:41;101211.88;;;28.14;41.04
60845;BME280;47984;51.250;6.712;2022-08-03T11:34:12;101210.66;;;28.26;40.70
60845;BME280;47984;51.250;6.712;2022-08-03T11:37:17;101203.19;;;28.30;40.66
60845;BME280;47984;51.250;6.712;2022-08-03T11:39:49;101202.34;;;28.29;40.33
60845;BME280;47984;51.250;6.712;2022-08-03T11:44:51;101216.66;;;28.38;40.48
60845;BME280;47984;51.250;6.712;2022-08-03T11:47:19;101215.34;;;28.42;40.43
60845;BME280;47984;51.250;6.712;2022-08-03T11:49:57;101207.84;;;28.46;40.47
60845;BME280;47984;51.250;6.712;2022-08-03T11:52:33;101194.66;;;28.44;40.67
60845;BME280;47984;51.250;6.712;2022-08-03T11:55:01;101197.03;;;28.47;40.15
60845;BME280;47984;51.250;6.712;2022-08-03T11:57:29;101198.69;;;28.48;40.37
60845;BME280;47984;51.250;6.712;2022-08-03T12:03:00;101199.78;;;28.55;40.15
60845;BME280;47984;51.250;6.712;2022-08-03T12:05:38;101200.31;;;28.59;39.93
60845;BME280;47984;51.250;6.712;2022-08-03T12:08:07;101200.19;;;28.60;39.92
60845;BME280;47984;51.250;6.712;2022-08-03T12:10:36;101196.06;;;28.66;39.83
60845;BME280;47984;51.250;6.712;2022-08-03T12:13:04;101203.78;;;28.69;39.86
60845;BME280;47984;51.250;6.712;2022-08-03T12:15:57;101197.56;;;28.69;39.61
60845;BME280;47984;51.250;6.712;2022-08-03T12:18:26;101189.53;;;28.69;39.82
60845;BME280;47984;51.250;6.712;2022-08-03T12:21:06;101189.41;;;28.70;39.47
60845;BME280;47984;51.250;6.712;2022-08-03T12:23:34;101190.94;;;28.73;39.49
60845;BME280;47984;51.250;6.712;2022-08-03T12:26:05;101190.78;;;28.74;39.44
60845;BME280;47984;51.250;6.712;2022-08-03T12:28:33;101198.66;;;28.76;39.32
60845;BME280;47984;51.250;6.712;2022-08-03T12:31:07;101180.59;;;28.78;39.46
60845;BME280;47984;51.250;6.712;2022-08-03T12:36:25;101175.94;;;28.80;39.15
60845;BME280;47984;51.250;6.712;2022-08-03T12:39:01;101172.44;;;28.79;39.13
60845;BME280;47984;51.250;6.712;2022-08-03T12:41:34;101179.63;;;28.79;39.08
60845;BME280;47984;51.250;6.712;2022-08-03T12:44:03;101170.75;;;28.78;39.07
60845;BME280;47984;51.250;6.712;2022-08-03T12:46:36;101178.78;;;28.78;39.19
60845;BME280;47984;51.250;6.712;2022-08-03T12:49:10;101183.97;;;28.80;39.15
60845;BME280;47984;51.250;6.712;2022-08-03T12:54:15;101190.84;;;28.82;38.82
60845;BME280;47984;51.250;6.712;2022-08-03T12:57:21;101189.72;;;28.85;38.23
60845;BME280;47984;51.250;6.712;2022-08-03T12:59:48;101184.34;;;28.85;38.72
60845;BME280;47984;51.250;6.712;2022-08-03T13:02:22;101178.16;;;28.84;38.51
60845;BME280;47984;51.250;6.712;2022-08-03T13:04:51;101175.63;;;28.83;38.62
60845;BME280;47984;51.250;6.712;2022-08-03T13:07:21;101163.72;;;28.77;38.41
60845;BME280;47984;51.250;6.712;2022-08-03T13:09:53;101173.28;;;28.80;38.57
60845;BME280;47984;51.250;6.712;2022-08-03T13:12:21;101173.97;;;28.82;38.46
60845;BME280;47984;51.250;6.712;2022-08-03T13:14:55;101170.44;;;28.81;38.14
60845;BME280;47984;51.250;6.712;2022-08-03T13:17:23;101174.94;;;28.81;38.48
60845;BME280;47984;51.250;6.712;2022-08-03T13:19:50;101170.75;;;28.78;38.41
60845;BME280;47984;51.250;6.712;2022-08-03T13:22:20;101173.56;;;28.77;38.38
60845;BME280;47984;51.250;6.712;2022-08-03T13:24:50;101173.56;;;28.77;38.14
60845;BME280;47984;51.250;6.712;2022-08-03T13:27:18;101163.19;;;28.74;38.22
60845;BME280;47984;51.250;6.712;2022-08-03T13:30:06;101166.03;;;28.72;38.30
60845;BME280;47984;51.250;6.712;2022-08-03T13:32:35;101162.66;;;28.70;38.13
60845;BME280;47984;51.250;6.712;2022-08-03T13:35:02;101165.16;;;28.72;38.13
60845;BME280;47984;51.250;6.712;2022-08-03T13:37:30;101158.97;;;28.71;37.83
60845;BME280;47984;51.250;6.712;2022-08-03T13:40:02;101165.34;;;28.70;38.06
60845;BME280;47984;51.250;6.712;2022-08-03T13:42:32;101164.19;;;28.73;37.84
60845;BME280;47984;51.250;6.712;2022-08-03T13:45:00;101158.84;;;28.73;37.84
60845;BME280;47984;51.250;6.712;2022-08-03T13:47:28;101159.50;;;28.75;37.76
60845;BME280;47984;51.250;6.712;2022-08-03T13:49:55;101150.50;;;28.76;38.04
60845;BME280;47984;51.250;6.712;2022-08-03T13:52:30;101154.03;;;28.76;37.52